createdAt,value
2022-10-07T00:01:27.687Z,17.70
2022-10-07T00:03:58.214Z,18.40
2022-10-07T00:06:28.538Z,18.30
2022-10-07T00:08:56.667Z,17.80
2022-10-07T00:11:28.536Z,19.10
2022-10-07T00:14:00.672Z,18.60
2022-10-07T00:16:33.163Z,18.40
2022-10-07T00:19:07.688Z,18.70
2022-10-07T00:21:39.123Z,20.50
2022-10-07T00:24:11.281Z,17.30
2022-10-07T00:26:39.403Z,18.70
2022-10-07T00:29:09.797Z,21.80
2022-10-07T00:31:39.693Z,21.90
2022-10-07T00:34:10.968Z,19.20
2022-10-07T00:36:40.508Z,20.90
2022-10-07T00:39:13.656Z,19.60
2022-10-07T00:41:46.768Z,17.90
2022-10-07T00:44:32.831Z,18.50
2022-10-07T00:47:25.758Z,21.30
2022-10-07T00:50:13.776Z,21.90
2022-10-07T00:52:53.031Z,20.00
2022-10-07T00:55:26.193Z,21.10
2022-10-07T00:57:59.209Z,17.70
2022-10-07T01:00:28.582Z,21.50
2022-10-07T01:02:56.252Z,17.90
2022-10-07T01:05:24.167Z,19.40
2022-10-07T01:07:58.268Z,19.20
2022-10-07T01:10:49.843Z,19.30
2022-10-07T01:13:50.560Z,18.40
2022-10-07T01:16:33.057Z,19.20
2022-10-07T01:19:21.274Z,20.20
2022-10-07T01:22:03.227Z,19.20
2022-10-07T01:24:42.984Z,21.10
2022-10-07T01:27:19.355Z,24.20
2022-10-07T01:30:03.332Z,18.50
2022-10-07T01:32:53.298Z,18.90
2022-10-07T01:35:34.060Z,21.80
2022-10-07T01:38:11.118Z,21.80
2022-10-07T01:40:48.403Z,19.80
2022-10-07T01:43:19.974Z,16.80
2022-10-07T01:45:51.638Z,21.00
2022-10-07T01:48:19.379Z,17.40
2022-10-07T01:50:50.796Z,16.70
2022-10-07T01:53:25.036Z,19.50
2022-10-07T01:56:17.816Z,17.90
2022-10-07T01:59:14.158Z,17.30
2022-10-07T02:02:07.010Z,22.20
2022-10-07T02:05:06.973Z,19.40
2022-10-07T02:08:05.681Z,21.70
2022-10-07T02:11:02.939Z,17.90
2022-10-07T02:14:02.446Z,21.00
2022-10-07T02:16:36.486Z,19.00
2022-10-07T02:19:16.781Z,17.80
2022-10-07T02:21:49.482Z,17.20
2022-10-07T02:24:24.529Z,15.60
2022-10-07T02:26:55.867Z,22.00
2022-10-07T02:29:32.255Z,18.40
2022-10-07T02:32:06.820Z,21.70
2022-10-07T02:34:37.634Z,18.20
2022-10-07T02:37:19.700Z,18.70
2022-10-07T02:39:47.701Z,19.40
2022-10-07T02:42:46.459Z,15.80
2022-10-07T02:45:36.504Z,17.80
2022-10-07T02:48:27.860Z,17.60
2022-10-07T02:51:03.035Z,19.40
2022-10-07T02:53:36.299Z,19.80
2022-10-07T02:56:06.641Z,18.70
2022-10-07T02:58:37.843Z,19.10
2022-10-07T03:01:09.121Z,22.70
2022-10-07T03:03:37.135Z,20.00
2022-10-07T03:06:06.223Z,19.70
2022-10-07T03:08:37.211Z,20.10
2022-10-07T03:11:05.115Z,21.50
2022-10-07T03:13:36.731Z,18.30
2022-10-07T03:16:05.671Z,19.90
2022-10-07T03:18:35.758Z,19.10
2022-10-07T03:21:05.166Z,19.90
2022-10-07T03:23:36.078Z,20.10
2022-10-07T03:26:04.424Z,18.00
2022-10-07T03:28:37.483Z,18.70
2022-10-07T03:31:08.935Z,22.10
2022-10-07T03:33:39.012Z,18.00
2022-10-07T03:36:08.838Z,21.70
2022-10-07T03:38:38.468Z,22.40
2022-10-07T03:41:08.062Z,26.10
2022-10-07T03:43:39.386Z,20.30
2022-10-07T03:46:07.562Z,17.90
2022-10-07T03:48:35.654Z,19.50
2022-10-07T03:51:04.524Z,20.30
2022-10-07T03:53:32.227Z,21.10
2022-10-07T03:56:01.736Z,16.30
2022-10-07T03:58:29.518Z,16.30
2022-10-07T04:01:24.689Z,17.80
2022-10-07T04:03:55.885Z,19.10
2022-10-07T04:06:23.584Z,19.20
2022-10-07T04:08:55.229Z,18.80
2022-10-07T04:11:24.462Z,19.00
2022-10-07T04:13:53.627Z,21.10
2022-10-07T04:16:24.554Z,19.20
2022-10-07T04:18:56.162Z,19.10
2022-10-07T04:21:24.779Z,20.70
2022-10-07T04:23:52.734Z,17.10
2022-10-07T04:26:57.131Z,19.90
2022-10-07T04:29:25.438Z,19.50
2022-10-07T04:31:53.161Z,20.00
2022-10-07T04:34:21.454Z,16.50
2022-10-07T04:36:49.389Z,16.90
2022-10-07T04:39:17.294Z,18.00
2022-10-07T04:41:45.167Z,20.90
2022-10-07T04:44:13.439Z,23.20
2022-10-07T04:46:41.449Z,24.60
2022-10-07T04:49:10.870Z,20.50
2022-10-07T04:51:38.746Z,19.00
2022-10-07T04:54:09.748Z,21.60
2022-10-07T04:56:37.718Z,19.10
2022-10-07T04:59:06.097Z,21.80
2022-10-07T05:01:34.060Z,23.90
2022-10-07T05:04:03.398Z,23.30
2022-10-07T05:06:31.124Z,24.80
2022-10-07T05:09:01.870Z,17.80
2022-10-07T05:11:31.168Z,19.50
2022-10-07T05:14:03.278Z,23.80
2022-10-07T05:16:31.298Z,18.80
2022-10-07T05:19:01.708Z,22.40
2022-10-07T05:21:31.014Z,25.40
2022-10-07T05:24:00.120Z,20.10
2022-10-07T05:26:30.803Z,22.60
2022-10-07T05:28:58.983Z,29.60
2022-10-07T05:31:28.072Z,25.20
2022-10-07T05:33:59.466Z,23.50
2022-10-07T05:36:30.098Z,22.10
2022-10-07T05:38:59.337Z,25.10
2022-10-07T05:41:29.923Z,28.50
2022-10-07T05:43:58.035Z,28.10
2022-10-07T05:46:30.161Z,29.90
2022-10-07T05:49:00.997Z,36.60
2022-10-07T05:51:28.660Z,36.70
2022-10-07T05:53:59.727Z,42.40
2022-10-07T05:56:27.470Z,39.40
2022-10-07T05:58:57.196Z,43.40
2022-10-07T06:01:28.478Z,49.10
2022-10-07T06:04:00.176Z,53.20
2022-10-07T06:06:31.140Z,54.10
2022-10-07T06:09:18.794Z,47.00
2022-10-07T06:12:08.472Z,67.80
2022-10-07T06:14:37.566Z,57.80
2022-10-07T06:17:08.282Z,58.90
2022-10-07T06:19:39.848Z,53.80
2022-10-07T06:22:07.549Z,37.20
2022-10-07T06:24:38.198Z,40.30
2022-10-07T06:27:08.929Z,34.90
2022-10-07T06:29:36.615Z,50.30
2022-10-07T06:32:08.245Z,40.70
2022-10-07T06:34:37.138Z,56.60
2022-10-07T06:37:04.803Z,34.60
2022-10-07T06:39:32.693Z,56.00
2022-10-07T06:42:00.558Z,32.60
2022-10-07T06:44:31.623Z,69.40
2022-10-07T06:46:59.434Z,39.40
2022-10-07T06:49:27.350Z,47.00
2022-10-07T06:51:55.008Z,41.70
2022-10-07T06:54:22.905Z,55.80
2022-10-07T06:56:52.235Z,73.70
2022-10-07T06:59:20.090Z,44.60
2022-10-07T07:01:48.075Z,41.50
2022-10-07T07:04:15.856Z,49.80
2022-10-07T07:06:43.709Z,47.90
2022-10-07T07:09:12.136Z,52.50
2022-10-07T07:11:45.199Z,52.70
2022-10-07T07:14:16.614Z,49.00
2022-10-07T07:16:47.112Z,46.70
2022-10-07T07:19:16.385Z,46.40
2022-10-07T07:21:49.078Z,38.30
2022-10-07T07:24:21.513Z,42.30
2022-10-07T07:26:49.155Z,43.70
2022-10-07T07:29:17.095Z,40.20
2022-10-07T07:31:45.343Z,40.10
2022-10-07T07:34:13.929Z,38.40
2022-10-07T07:36:51.350Z,39.00
2022-10-07T07:39:22.678Z,34.20
2022-10-07T07:41:53.860Z,29.70
2022-10-07T07:44:25.041Z,30.50
2022-10-07T07:46:52.938Z,27.50
2022-10-07T07:49:24.723Z,29.80
2022-10-07T07:51:52.479Z,28.10
2022-10-07T07:54:25.425Z,32.60
2022-10-07T07:57:00.721Z,32.40
2022-10-07T07:59:31.185Z,31.00
2022-10-07T08:02:02.620Z,29.40
2022-10-07T08:04:33.330Z,29.60
2022-10-07T08:07:01.535Z,32.50
2022-10-07T08:09:29.413Z,34.60
2022-10-07T08:11:58.280Z,35.30
2022-10-07T08:14:25.998Z,36.40
2022-10-07T08:16:56.267Z,32.20
2022-10-07T08:19:26.772Z,32.00
2022-10-07T08:21:54.684Z,29.90
2022-10-07T08:24:27.875Z,30.30
2022-10-07T08:26:59.593Z,29.70
2022-10-07T08:29:27.462Z,25.40
2022-10-07T08:31:55.353Z,25.30
2022-10-07T08:34:24.657Z,25.00
2022-10-07T08:36:52.334Z,26.30
2022-10-07T08:39:20.912Z,25.30
2022-10-07T08:42:15.303Z,27.90
2022-10-07T08:44:48.900Z,22.80
2022-10-07T08:47:26.823Z,23.40
2022-10-07T08:50:08.859Z,22.50
2022-10-07T08:52:39.536Z,19.90
2022-10-07T08:55:34.890Z,22.40
2022-10-07T08:58:45.581Z,24.50
2022-10-07T09:01:45.959Z,22.30
2022-10-07T09:04:36.080Z,20.20
2022-10-07T09:07:36.450Z,22.20
2022-10-07T09:10:26.624Z,28.10
2022-10-07T09:13:14.080Z,22.00
2022-10-07T09:15:49.482Z,22.20
2022-10-07T09:18:35.114Z,18.10
2022-10-07T09:21:31.585Z,18.70
2022-10-07T09:24:32.560Z,18.30
2022-10-07T09:27:13.562Z,17.20
2022-10-07T09:29:46.308Z,16.80
2022-10-07T09:32:19.707Z,17.00
2022-10-07T09:34:48.625Z,15.30
2022-10-07T09:37:21.741Z,20.00
2022-10-07T09:39:53.000Z,17.60
2022-10-07T09:42:43.980Z,19.00
2022-10-07T09:45:19.737Z,14.30
2022-10-07T09:48:10.106Z,14.20
2022-10-07T09:50:43.083Z,18.10
2022-10-07T09:53:20.244Z,15.50
2022-10-07T09:55:50.856Z,11.70
2022-10-07T09:58:25.771Z,9.50
2022-10-07T10:00:59.308Z,12.40
2022-10-07T10:03:37.699Z,8.40
2022-10-07T10:06:09.874Z,6.40
2022-10-07T10:08:43.983Z,7.90
2022-10-07T10:11:20.580Z,8.60
2022-10-07T10:13:52.035Z,6.60
2022-10-07T10:16:28.957Z,7.50
2022-10-07T10:19:03.087Z,8.80
2022-10-07T10:21:41.180Z,10.10
2022-10-07T10:24:15.599Z,11.60
2022-10-07T10:27:16.653Z,9.30
2022-10-07T10:30:04.073Z,5.30
2022-10-07T10:32:57.609Z,9.30
2022-10-07T10:35:37.812Z,9.80
2022-10-07T10:38:25.356Z,7.70
2022-10-07T10:41:10.708Z,7.90
2022-10-07T10:44:31.245Z,7.30
2022-10-07T10:47:15.358Z,8.70
2022-10-07T10:50:07.471Z,10.30
2022-10-07T10:52:49.997Z,6.80
2022-10-07T10:55:41.152Z,7.60
2022-10-07T10:58:30.290Z,10.30
2022-10-07T11:01:25.196Z,7.80
2022-10-07T11:04:13.625Z,7.10
2022-10-07T11:06:48.490Z,5.90
2022-10-07T11:09:33.628Z,7.50
2022-10-07T11:12:06.392Z,26.70
2022-10-07T11:14:46.013Z,9.60
2022-10-07T11:17:16.170Z,8.40
2022-10-07T11:20:05.130Z,7.30
2022-10-07T11:22:48.197Z,7.20
2022-10-07T11:25:43.120Z,7.80
2022-10-07T11:28:22.658Z,4.60
2022-10-07T11:31:05.589Z,7.30
2022-10-07T11:34:01.097Z,7.70
2022-10-07T11:37:05.788Z,10.60
2022-10-07T11:39:39.969Z,5.70
2022-10-07T11:42:25.720Z,8.20
2022-10-07T11:45:16.486Z,10.00
2022-10-07T11:47:50.672Z,10.70
2022-10-07T11:50:31.338Z,6.50
2022-10-07T11:53:21.018Z,5.80
2022-10-07T11:55:59.214Z,9.70
2022-10-07T11:58:37.446Z,7.20
2022-10-07T12:01:30.687Z,7.00
2022-10-07T12:04:00.267Z,11.90
2022-10-07T12:06:28.847Z,7.20
2022-10-07T12:08:56.711Z,6.60
2022-10-07T12:11:32.018Z,8.10
2022-10-07T12:14:31.393Z,6.10
2022-10-07T12:17:20.969Z,9.00
2022-10-07T12:20:45.973Z,5.80
2022-10-07T12:23:21.315Z,6.30
2022-10-07T12:25:51.691Z,6.00
2022-10-07T12:28:42.036Z,5.20
2022-10-07T12:31:12.750Z,6.80
2022-10-07T12:33:46.637Z,7.70
2022-10-07T12:36:26.455Z,5.40
2022-10-07T12:38:56.367Z,6.70
2022-10-07T12:41:40.072Z,8.80
2022-10-07T12:44:36.719Z,3.70
2022-10-07T12:47:12.859Z,9.10
2022-10-07T12:49:56.019Z,7.20
2022-10-07T12:52:32.568Z,5.60
2022-10-07T12:55:34.679Z,6.70
2022-10-07T12:58:35.537Z,10.90
2022-10-07T13:01:11.988Z,9.70
2022-10-07T13:04:05.082Z,11.70
2022-10-07T13:06:55.999Z,9.20
2022-10-07T13:09:26.785Z,8.90
2022-10-07T13:12:19.901Z,8.60
2022-10-07T13:15:12.024Z,6.80
2022-10-07T13:18:14.932Z,8.70
2022-10-07T13:20:58.000Z,10.90
2022-10-07T13:23:27.696Z,9.00
2022-10-07T13:26:00.491Z,10.00
2022-10-07T13:28:52.612Z,11.40
2022-10-07T13:31:29.190Z,10.80
2022-10-07T13:34:17.980Z,5.60
2022-10-07T13:36:45.715Z,5.20
2022-10-07T13:39:23.297Z,5.60
2022-10-07T13:41:55.755Z,8.60
2022-10-07T13:44:30.023Z,7.60
2022-10-07T13:47:05.654Z,7.00
2022-10-07T13:49:46.364Z,7.70
2022-10-07T13:52:33.722Z,8.80
2022-10-07T13:55:01.676Z,9.10
2022-10-07T13:57:36.024Z,9.20
2022-10-07T14:00:07.021Z,7.40
2022-10-07T14:02:39.958Z,8.40
2022-10-07T14:05:43.501Z,9.30
2022-10-07T14:08:18.339Z,8.50
2022-10-07T14:11:05.150Z,8.90
2022-10-07T14:13:35.083Z,12.80
2022-10-07T14:16:04.601Z,7.40
2022-10-07T14:18:33.184Z,10.00
2022-10-07T14:21:16.688Z,11.30
2022-10-07T14:23:47.452Z,8.80
2022-10-07T14:26:17.760Z,9.40
2022-10-07T14:28:45.642Z,8.80
2022-10-07T14:31:41.213Z,9.50
2022-10-07T14:34:39.069Z,17.90
2022-10-07T14:37:19.611Z,11.70
2022-10-07T14:39:52.198Z,8.00
2022-10-07T14:42:26.193Z,13.50
2022-10-07T14:44:58.725Z,11.60
2022-10-07T14:47:31.326Z,16.30
2022-10-07T14:50:01.348Z,13.70
2022-10-07T14:52:52.100Z,17.40
2022-10-07T14:55:28.670Z,13.30
2022-10-07T14:57:57.926Z,17.90
2022-10-07T15:00:35.995Z,16.00
2022-10-07T15:03:07.386Z,14.40
2022-10-07T15:05:36.433Z,18.80
2022-10-07T15:08:05.743Z,14.10
2022-10-07T15:10:33.484Z,15.50
2022-10-07T15:13:04.085Z,12.70
2022-10-07T15:15:34.253Z,11.20
2022-10-07T15:18:01.938Z,14.50
2022-10-07T15:20:30.681Z,13.10
2022-10-07T15:22:58.340Z,43.50
2022-10-07T15:25:26.045Z,21.50
2022-10-07T15:27:53.731Z,30.20
2022-10-07T15:30:21.429Z,24.10
2022-10-07T15:32:50.577Z,15.10
2022-10-07T15:35:21.510Z,13.90
2022-10-07T15:37:50.167Z,19.60
2022-10-07T15:40:18.001Z,12.70
2022-10-07T15:42:45.856Z,17.60
2022-10-07T15:45:17.798Z,17.40
2022-10-07T15:47:45.507Z,20.50
2022-10-07T15:50:13.183Z,24.90
2022-10-07T15:52:42.334Z,17.00
2022-10-07T15:55:11.783Z,17.40
2022-10-07T15:57:41.158Z,17.40
2022-10-07T16:00:09.962Z,31.50
2022-10-07T16:02:37.819Z,23.50
2022-10-07T16:05:05.817Z,24.40
2022-10-07T16:07:33.808Z,25.00
2022-10-07T16:10:01.576Z,26.40
2022-10-07T16:12:31.078Z,24.70
2022-10-07T16:14:59.446Z,23.20
2022-10-07T16:17:27.983Z,20.40
2022-10-07T16:19:55.665Z,21.90
2022-10-07T16:22:24.863Z,23.20
2022-10-07T16:24:54.450Z,20.40
2022-10-07T16:27:42.553Z,22.20
2022-10-07T16:30:31.459Z,23.30
2022-10-07T16:33:00.645Z,19.50
2022-10-07T16:35:31.529Z,20.80
2022-10-07T16:38:00.985Z,16.80
2022-10-07T16:40:28.923Z,19.00
2022-10-07T16:43:00.811Z,18.50
2022-10-07T16:45:28.545Z,19.60
2022-10-07T16:47:58.019Z,18.40
2022-10-07T16:50:26.198Z,23.50
2022-10-07T16:52:54.045Z,45.60
2022-10-07T16:55:21.749Z,33.70
2022-10-07T16:57:50.917Z,27.30
2022-10-07T17:00:18.633Z,26.50
2022-10-07T17:02:46.567Z,19.00
2022-10-07T17:05:14.578Z,16.00
2022-10-07T17:07:42.531Z,17.90
2022-10-07T17:10:10.492Z,18.40
2022-10-07T17:12:38.139Z,23.00
2022-10-07T17:15:09.338Z,32.00
2022-10-07T17:17:38.620Z,22.60
2022-10-07T17:20:10.224Z,19.50
2022-10-07T17:22:40.273Z,24.90
2022-10-07T17:25:10.306Z,24.00
2022-10-07T17:27:38.192Z,24.30
2022-10-07T17:30:08.174Z,22.80
2022-10-07T17:32:36.098Z,21.00
2022-10-07T17:35:08.484Z,21.90
2022-10-07T17:37:36.438Z,21.00
2022-10-07T17:40:05.790Z,19.10
2022-10-07T17:42:33.708Z,22.40
2022-10-07T17:45:01.543Z,23.30
2022-10-07T17:47:29.642Z,23.90
2022-10-07T17:50:01.099Z,24.00
2022-10-07T17:52:30.452Z,24.20
2022-10-07T17:54:59.857Z,21.80
2022-10-07T17:57:27.880Z,22.10
2022-10-07T17:59:57.103Z,21.90
2022-10-07T18:02:25.047Z,19.90
2022-10-07T18:04:52.712Z,18.30
2022-10-07T18:07:21.928Z,20.30
2022-10-07T18:09:50.225Z,24.20
2022-10-07T18:12:38.775Z,24.90
2022-10-07T18:15:23.786Z,22.60
2022-10-07T18:17:57.380Z,20.40
2022-10-07T18:20:28.914Z,23.10
2022-10-07T18:22:59.732Z,22.60
2022-10-07T18:25:29.133Z,21.90
2022-10-07T18:27:57.008Z,21.50
2022-10-07T18:30:24.872Z,21.40
2022-10-07T18:32:54.194Z,24.50
2022-10-07T18:35:22.083Z,24.00
2022-10-07T18:37:52.405Z,20.80
2022-10-07T18:40:20.092Z,21.70
2022-10-07T18:42:48.051Z,22.00
2022-10-07T18:45:15.823Z,24.00
2022-10-07T18:47:43.603Z,21.80
2022-10-07T18:50:12.344Z,22.20
2022-10-07T18:52:40.322Z,20.80
2022-10-07T18:55:09.960Z,21.30
2022-10-07T18:57:37.617Z,23.00
2022-10-07T19:00:07.576Z,21.40
2022-10-07T19:02:35.285Z,21.10
2022-10-07T19:05:04.618Z,22.00
2022-10-07T19:07:33.334Z,25.40
2022-10-07T19:10:02.636Z,22.70
2022-10-07T19:12:49.306Z,31.00
2022-10-07T19:15:19.693Z,27.20
2022-10-07T19:17:47.934Z,23.40
2022-10-07T19:20:18.541Z,21.80
2022-10-07T19:22:46.308Z,25.40
2022-10-07T19:25:32.443Z,22.90
2022-10-07T19:28:00.398Z,22.10
2022-10-07T19:30:29.151Z,21.40
2022-10-07T19:32:57.529Z,23.40
2022-10-07T19:35:25.162Z,23.50
2022-10-07T19:37:54.698Z,23.50
2022-10-07T19:40:22.463Z,21.50
2022-10-07T19:42:50.191Z,23.10
2022-10-07T19:45:18.135Z,24.90
2022-10-07T19:47:46.013Z,22.40
2022-10-07T19:50:15.800Z,22.60
2022-10-07T19:52:45.914Z,25.10
2022-10-07T19:55:13.588Z,24.40
2022-10-07T19:57:41.248Z,25.10
2022-10-07T20:00:11.224Z,22.60
2022-10-07T20:02:39.174Z,22.10
2022-10-07T20:05:11.104Z,22.10
2022-10-07T20:07:40.221Z,22.60
2022-10-07T20:10:09.620Z,24.00
2022-10-07T20:12:40.721Z,24.10
2022-10-07T20:15:11.662Z,22.40
2022-10-07T20:17:41.947Z,28.00
2022-10-07T20:20:12.445Z,24.40
2022-10-07T20:22:44.715Z,23.90
2022-10-07T20:25:17.616Z,26.60
2022-10-07T20:27:45.629Z,22.20
2022-10-07T20:30:18.249Z,23.00
2022-10-07T20:32:47.972Z,23.80
2022-10-07T20:35:16.739Z,23.70
2022-10-07T20:37:44.393Z,23.80
2022-10-07T20:40:32.944Z,25.90
2022-10-07T20:43:03.831Z,25.50
2022-10-07T20:45:52.049Z,22.90
2022-10-07T20:48:20.605Z,24.00
2022-10-07T20:50:50.571Z,24.40
2022-10-07T20:53:18.214Z,24.60
2022-10-07T20:55:47.733Z,25.70
2022-10-07T20:58:16.972Z,27.80
2022-10-07T21:00:46.340Z,24.50
2022-10-07T21:03:14.247Z,27.00
2022-10-07T21:05:45.659Z,26.20
2022-10-07T21:08:16.574Z,25.80
2022-10-07T21:10:44.890Z,23.30
2022-10-07T21:13:17.033Z,24.70
2022-10-07T21:15:46.744Z,24.40
2022-10-07T21:18:17.246Z,22.70
2022-10-07T21:20:56.687Z,24.50
2022-10-07T21:23:31.145Z,27.20
2022-10-07T21:26:02.094Z,26.60
2022-10-07T21:28:36.793Z,23.80
2022-10-07T21:31:11.136Z,26.20
2022-10-07T21:33:42.693Z,23.10
2022-10-07T21:36:16.952Z,26.90
2022-10-07T21:38:54.091Z,28.90
2022-10-07T21:41:41.107Z,35.50
2022-10-07T21:44:16.445Z,27.00
2022-10-07T21:46:49.395Z,23.90
2022-10-07T21:49:20.719Z,24.90
2022-10-07T21:51:48.372Z,24.60
2022-10-07T21:54:19.410Z,24.90
2022-10-07T21:56:50.616Z,25.00
2022-10-07T21:59:21.572Z,28.90
2022-10-07T22:01:50.819Z,25.30
2022-10-07T22:04:21.352Z,25.90
2022-10-07T22:07:10.783Z,25.30
2022-10-07T22:09:42.420Z,29.70
2022-10-07T22:12:10.228Z,26.60
2022-10-07T22:14:41.586Z,28.10
2022-10-07T22:17:09.322Z,26.70
2022-10-07T22:19:41.046Z,30.30
2022-10-07T22:22:14.106Z,27.80
2022-10-07T22:24:46.996Z,27.80
2022-10-07T22:27:17.204Z,26.20
2022-10-07T22:29:44.871Z,25.50
2022-10-07T22:32:13.097Z,26.90
2022-10-07T22:34:59.337Z,29.30
2022-10-07T22:37:27.222Z,29.50
2022-10-07T22:39:55.597Z,27.60
2022-10-07T22:42:23.927Z,26.30
2022-10-07T22:44:52.522Z,25.40
2022-10-07T22:47:20.562Z,26.50
2022-10-07T22:49:48.697Z,26.80
2022-10-07T22:52:16.744Z,27.30
2022-10-07T22:54:45.258Z,25.70
2022-10-07T22:57:13.563Z,26.00
2022-10-07T22:59:41.417Z,25.10
2022-10-07T23:02:10.860Z,27.60
2022-10-07T23:04:38.628Z,28.00
2022-10-07T23:07:07.150Z,27.00
2022-10-07T23:09:35.040Z,29.30
2022-10-07T23:12:05.762Z,25.90
2022-10-07T23:14:34.155Z,25.40
2022-10-07T23:17:02.860Z,28.40
2022-10-07T23:19:31.635Z,23.60
2022-10-07T23:22:00.816Z,26.70
2022-10-07T23:24:28.936Z,22.20
2022-10-07T23:26:57.122Z,22.30
2022-10-07T23:29:26.950Z,26.70
2022-10-07T23:31:55.255Z,25.60
2022-10-07T23:34:23.560Z,26.60
2022-10-07T23:36:54.591Z,26.10
2022-10-07T23:39:23.808Z,26.90
2022-10-07T23:41:51.511Z,25.90
2022-10-07T23:44:20.991Z,22.40
2022-10-07T23:46:51.027Z,24.00
2022-10-07T23:49:19.962Z,22.80
2022-10-07T23:51:49.033Z,23.50
2022-10-07T23:54:17.255Z,25.10
2022-10-07T23:56:45.846Z,27.90
2022-10-07T23:59:14.485Z,23.40
